Manzanola, CO (81058)

6:53 PM MDT on July 10, 2014 (GMT -0600)
KCOMANZA2 Elev 4308 ft | 38.10 °N, 103.88 °W | Change Station

Current weather conditions updated 3 minutes ago

Clear
Clear
98.6 °F
Feels Like 96 °F
N
0.0
Wind Variable Wind from ENE
Gusts 0.0 mph

Tomorrow is forecast to be nearly the same temperature as today.

Today
High -- | Low -- °F
--% Chance of Precip.
Yesterday
High -- | Low -- °F
Precip. -- in
5:41 AM 8:20 PM
Waxing Gibbous, 97% visible
Pressure 29.67 in
Visibility 10.0 miles
Clouds Clear
Heat Index 96 °F
Dew Point 53 °F
Humidity 22%
Rainfall 0.00 in
Snow Depth Not available.
UV 3 out of 12
Pollen 5.40 out of 12
Air Quality Not available.
Flu Activity Local Activity
METAR KLHX 102353Z AUTO 00000KT 10SM CLR 38/02 A2988 RMK AO2 SLP046 T03780022 10383 20317 56014

More Conditions Fewer Conditions

Pressure 29.67 in
Visibility 10.0 miles
Clouds Clear
Heat Index 96 °F
Dew Point 53 °F
Humidity 22%
Rainfall 0.00 in
Snow Depth Not available.
UV 3 out of 12
Pollen 5.40 out of 12
Air Quality Not available.
Flu Activity Local Activity
METAR KLHX 102353Z AUTO 00000KT 10SM CLR 38/02 A2988 RMK AO2 SLP046 T03780022 10383 20317 56014

More Conditions Fewer Conditions

10-Day Weather Forecast

Almanac

Astronomy

Jul. 10, 2014 Rise Set
Actual Time 5:41 AM MDT 8:20 PM MDT
Civil Twilight 5:10 AM MDT 8:51 PM MDT
Nautical Twilight 4:31 AM MDT 9:29 PM MDT
Astronomical Twilight 3:48 AM MDT 10:12 PM MDT
Moon 6:36 PM MDT (7/10) 3:54 AM MDT (7/10)
Length of Visible Light 15h 40m
Length of Day
14h 38m
Tomorrow will be 1m 3s shorter.
Waxing Gibbous, 97% of the Moon is Illuminated
Today
Waxing Gibbous
Jul 12
Full
Jul 18
Last Quarter
Jul 26
New
Aug 3
First Quarter

Today's Extremes

State Highs State Lows

Community

WunderPhotos

Upload Photos

1,732,316 photos uploaded!

Nearby

Snow Depth

Station Depth Elevation
Ute Creek 0 in 10650 ft
Trinchera 0 in 10860 ft
Hoosier Pass 0 in 11400 ft
Grizzly Peak 3 in 11100 ft
Loveland Basin 0 in 11400 ft

Earthquake Activity

City Distance Mag. Time & Date
No recent earthquake activity has been reported nearby.
Minimum magnitude displayed is 2.5.

Coastal Water Temperatures

Place Temperature
No Stations Reporting

Nearby Weather Stations

Station Location Temp. Heat Index Dew Point Humidity Wind Precip. Elev Updated Type
Manzanola, CO 98.6 °F 96 °F 53 °F 22% ENE  at  0.0 mph 0.00 in / hr 4308 ft 6:49 PM MDT Normal
Fowler Airport, Fowler, CO 97.2 °F 93 °F 42 °F 15% East  at  5.0 mph 0.00 in / hr 4450 ft 6:53 PM MDT Rapid Fire
CRN COMANCHE GRASSLAND LA JUNTA 17WSWCO , Timpas, CO - - - 12% North  at  7 mph 0.00 in / hr 4386 ft 6:00 PM MDT MADIS
MesoWest BOONE , Boone, CO 99 °F 93 °F - - North  at  - 0.00 in / hr 4412 ft 4:35 PM MDT MADIS

Show More Stations Show Fewer Stations